sensor_id;sensor_type;location;lat;lon;timestamp;temperature;humidity
43949;DHT22;29429;51.074;13.764;2022-11-20T00:01:15;-5.20;99.90
43949;DHT22;29429;51.074;13.764;2022-11-20T00:03:42;-5.10;99.90
43949;DHT22;29429;51.074;13.764;2022-11-20T00:06:12;-5.20;99.90
43949;DHT22;29429;51.074;13.764;2022-11-20T00:08:41;-5.20;99.90
43949;DHT22;29429;51.074;13.764;2022-11-20T00:11:14;-5.20;99.90
43949;DHT22;29429;51.074;13.764;2022-11-20T00:13:47;-5.20;99.90
43949;DHT22;29429;51.074;13.764;2022-11-20T00:16:18;-5.20;99.90
43949;DHT22;29429;51.074;13.764;2022-11-20T00:18:47;-5.20;99.90
43949;DHT22;29429;51.074;13.764;2022-11-20T00:21:25;-5.20;99.90
43949;DHT22;29429;51.074;13.764;2022-11-20T00:23:54;-5.20;99.90
43949;DHT22;29429;51.074;13.764;2022-11-20T00:26:24;-5.20;99.90
43949;DHT22;29429;51.074;13.764;2022-11-20T00:28:58;-5.10;99.90
43949;DHT22;29429;51.074;13.764;2022-11-20T00:31:28;-5.10;99.90
43949;DHT22;29429;51.074;13.764;2022-11-20T00:33:56;-5.10;99.90
43949;DHT22;29429;51.074;13.764;2022-11-20T00:36:25;-5.20;99.90
43949;DHT22;29429;51.074;13.764;2022-11-20T00:38:56;-5.20;99.90
43949;DHT22;29429;51.074;13.764;2022-11-20T00:41:25;-5.30;99.90
43949;DHT22;29429;51.074;13.764;2022-11-20T00:43:54;-5.20;99.90
43949;DHT22;29429;51.074;13.764;2022-11-20T00:46:24;-5.30;99.90
43949;DHT22;29429;51.074;13.764;2022-11-20T00:48:52;-5.20;99.90
43949;DHT22;29429;51.074;13.764;2022-11-20T00:51:21;-5.20;99.90
43949;DHT22;29429;51.074;13.764;2022-11-20T00:53:50;-5.20;99.90
43949;DHT22;29429;51.074;13.764;2022-11-20T00:56:19;-5.10;99.90
43949;DHT22;29429;51.074;13.764;2022-11-20T00:58:47;-5.10;99.90
43949;DHT22;29429;51.074;13.764;2022-11-20T01:01:20;-5.10;99.90
43949;DHT22;29429;51.074;13.764;2022-11-20T01:03:52;-5.10;99.90
43949;DHT22;29429;51.074;13.764;2022-11-20T01:06:23;-5.10;99.90
43949;DHT22;29429;51.074;13.764;2022-11-20T01:08:54;-5.10;99.90
43949;DHT22;29429;51.074;13.764;2022-11-20T01:11:26;-5.10;99.90
43949;DHT22;29429;51.074;13.764;2022-11-20T01:13:55;-5.10;99.90
43949;DHT22;29429;51.074;13.764;2022-11-20T01:16:26;-5.10;99.90
43949;DHT22;29429;51.074;13.764;2022-11-20T01:18:58;-5.10;99.90
43949;DHT22;29429;51.074;13.764;2022-11-20T01:21:35;-5.10;99.90
43949;DHT22;29429;51.074;13.764;2022-11-20T01:24:05;-5.10;99.90
43949;DHT22;29429;51.074;13.764;2022-11-20T01:26:36;-5.10;99.90
43949;DHT22;29429;51.074;13.764;2022-11-20T01:29:06;-5.10;99.90
43949;DHT22;29429;51.074;13.764;2022-11-20T01:31:36;-5.20;99.90
43949;DHT22;29429;51.074;13.764;2022-11-20T01:34:14;-5.30;99.90
43949;DHT22;29429;51.074;13.764;2022-11-20T01:36:43;-5.30;99.90
43949;DHT22;29429;51.074;13.764;2022-11-20T01:39:17;-5.30;99.90
43949;DHT22;29429;51.074;13.764;2022-11-20T01:41:48;-5.30;99.90
43949;DHT22;29429;51.074;13.764;2022-11-20T01:47:30;-5.30;99.90
43949;DHT22;29429;51.074;13.764;2022-11-20T01:50:25;-5.40;99.90
43949;DHT22;29429;51.074;13.764;2022-11-20T01:52:58;-5.40;99.90
43949;DHT22;29429;51.074;13.764;2022-11-20T01:55:36;-5.50;99.90
43949;DHT22;29429;51.074;13.764;2022-11-20T01:58:08;-5.50;99.90
43949;DHT22;29429;51.074;13.764;2022-11-20T02:00:36;-5.60;99.90
43949;DHT22;29429;51.074;13.764;2022-11-20T02:03:08;-5.60;99.90
43949;DHT22;29429;51.074;13.764;2022-11-20T02:08:17;-5.60;99.90
43949;DHT22;29429;51.074;13.764;2022-11-20T02:10:45;-5.60;99.90
43949;DHT22;29429;51.074;13.764;2022-11-20T02:13:12;-5.60;99.90
43949;DHT22;29429;51.074;13.764;2022-11-20T02:15:58;-5.60;99.90
43949;DHT22;29429;51.074;13.764;2022-11-20T02:18:26;-5.60;99.90
43949;DHT22;29429;51.074;13.764;2022-11-20T02:21:03;-5.60;99.90
43949;DHT22;29429;51.074;13.764;2022-11-20T02:23:40;-5.60;99.90
43949;DHT22;29429;51.074;13.764;2022-11-20T02:26:30;-5.60;99.90
43949;DHT22;29429;51.074;13.764;2022-11-20T02:29:01;-5.60;99.90
43949;DHT22;29429;51.074;13.764;2022-11-20T02:31:38;-5.60;99.90
43949;DHT22;29429;51.074;13.764;2022-11-20T02:34:09;-5.60;99.90
43949;DHT22;29429;51.074;13.764;2022-11-20T02:36:36;-5.60;99.90
43949;DHT22;29429;51.074;13.764;2022-11-20T02:39:07;-5.70;99.90
43949;DHT22;29429;51.074;13.764;2022-11-20T02:41:36;-5.70;99.90
43949;DHT22;29429;51.074;13.764;2022-11-20T02:44:04;-5.70;99.90
43949;DHT22;29429;51.074;13.764;2022-11-20T02:46:32;-5.70;99.90
43949;DHT22;29429;51.074;13.764;2022-11-20T02:49:01;-5.70;99.90
43949;DHT22;29429;51.074;13.764;2022-11-20T02:51:29;-5.70;99.90
43949;DHT22;29429;51.074;13.764;2022-11-20T02:53:57;-5.70;99.90
43949;DHT22;29429;51.074;13.764;2022-11-20T02:56:24;-5.70;99.90
43949;DHT22;29429;51.074;13.764;2022-11-20T02:58:52;-5.70;99.90
43949;DHT22;29429;51.074;13.764;2022-11-20T03:01:19;-5.70;99.90
43949;DHT22;29429;51.074;13.764;2022-11-20T03:03:46;-5.80;99.90
43949;DHT22;29429;51.074;13.764;2022-11-20T03:06:17;-5.80;99.90
43949;DHT22;29429;51.074;13.764;2022-11-20T03:08:44;-5.80;99.90
43949;DHT22;29429;51.074;13.764;2022-11-20T03:11:11;-5.80;99.90
43949;DHT22;29429;51.074;13.764;2022-11-20T03:13:38;-5.80;99.90
43949;DHT22;29429;51.074;13.764;2022-11-20T03:16:11;-5.80;99.90
43949;DHT22;29429;51.074;13.764;2022-11-20T03:18:41;-5.80;99.90
43949;DHT22;29429;51.074;13.764;2022-11-20T03:21:10;-5.80;99.90
43949;DHT22;29429;51.074;13.764;2022-11-20T03:23:39;-5.80;99.90
43949;DHT22;29429;51.074;13.764;2022-11-20T03:26:19;-5.80;99.90
43949;DHT22;29429;51.074;13.764;2022-11-20T03:28:49;-5.80;99.90
43949;DHT22;29429;51.074;13.764;2022-11-20T03:31:40;-5.80;99.90
43949;DHT22;29429;51.074;13.764;2022-11-20T03:34:09;-5.80;99.90
43949;DHT22;29429;51.074;13.764;2022-11-20T03:36:39;-5.80;99.90
43949;DHT22;29429;51.074;13.764;2022-11-20T03:39:07;-5.80;99.90
43949;DHT22;29429;51.074;13.764;2022-11-20T03:41:39;-5.80;99.90
43949;DHT22;29429;51.074;13.764;2022-11-20T03:44:10;-5.80;99.90
43949;DHT22;29429;51.074;13.764;2022-11-20T03:46:38;-5.80;99.90
43949;DHT22;29429;51.074;13.764;2022-11-20T03:49:06;-5.90;99.90
43949;DHT22;29429;51.074;13.764;2022-11-20T03:51:35;-5.90;99.90
43949;DHT22;29429;51.074;13.764;2022-11-20T03:54:05;-5.90;99.90
43949;DHT22;29429;51.074;13.764;2022-11-20T03:56:35;-5.90;99.90
43949;DHT22;29429;51.074;13.764;2022-11-20T03:59:04;-5.90;99.90
43949;DHT22;29429;51.074;13.764;2022-11-20T04:01:36;-5.90;99.90
43949;DHT22;29429;51.074;13.764;2022-11-20T04:04:09;-6.00;99.90
43949;DHT22;29429;51.074;13.764;2022-11-20T04:06:38;-6.00;99.90
43949;DHT22;29429;51.074;13.764;2022-11-20T04:09:06;-6.00;99.90
43949;DHT22;29429;51.074;13.764;2022-11-20T04:11:35;-6.00;99.90
43949;DHT22;29429;51.074;13.764;2022-11-20T04:14:06;-6.00;99.90
43949;DHT22;29429;51.074;13.764;2022-11-20T04:16:38;-6.00;99.90
43949;DHT22;29429;51.074;13.764;2022-11-20T04:19:09;-6.00;99.90
43949;DHT22;29429;51.074;13.764;2022-11-20T04:21:38;-6.00;99.90
43949;DHT22;29429;51.074;13.764;2022-11-20T04:24:05;-6.00;99.90
43949;DHT22;29429;51.074;13.764;2022-11-20T04:26:33;-6.00;99.90
43949;DHT22;29429;51.074;13.764;2022-11-20T04:29:01;-6.00;99.90
43949;DHT22;29429;51.074;13.764;2022-11-20T04:31:32;-6.00;99.90
43949;DHT22;29429;51.074;13.764;2022-11-20T04:34:03;-6.00;99.90
43949;DHT22;29429;51.074;13.764;2022-11-20T04:36:32;-6.00;99.90
43949;DHT22;29429;51.074;13.764;2022-11-20T04:39:01;-6.10;99.90
43949;DHT22;29429;51.074;13.764;2022-11-20T04:41:34;-6.10;99.90
43949;DHT22;29429;51.074;13.764;2022-11-20T04:44:05;-6.10;99.90
43949;DHT22;29429;51.074;13.764;2022-11-20T04:46:42;-6.10;99.90
43949;DHT22;29429;51.074;13.764;2022-11-20T04:49:10;-6.20;99.90
43949;DHT22;29429;51.074;13.764;2022-11-20T04:51:38;-6.10;99.90
43949;DHT22;29429;51.074;13.764;2022-11-20T04:54:05;-6.20;99.90
43949;DHT22;29429;51.074;13.764;2022-11-20T04:56:32;-6.10;99.90
43949;DHT22;29429;51.074;13.764;2022-11-20T04:59:02;-6.10;99.90
43949;DHT22;29429;51.074;13.764;2022-11-20T05:01:30;-6.10;99.90
43949;DHT22;29429;51.074;13.764;2022-11-20T05:03:57;-6.20;99.90
43949;DHT22;29429;51.074;13.764;2022-11-20T05:06:24;-6.20;99.90
43949;DHT22;29429;51.074;13.764;2022-11-20T05:08:51;-6.30;99.90
43949;DHT22;29429;51.074;13.764;2022-11-20T05:11:20;-6.30;99.90
43949;DHT22;29429;51.074;13.764;2022-11-20T05:13:48;-6.30;99.90
43949;DHT22;29429;51.074;13.764;2022-11-20T05:16:18;-6.30;99.90
43949;DHT22;29429;51.074;13.764;2022-11-20T05:18:48;-6.20;99.90
43949;DHT22;29429;51.074;13.764;2022-11-20T05:21:17;-6.20;99.90
43949;DHT22;29429;51.074;13.764;2022-11-20T05:23:45;-6.20;99.90
43949;DHT22;29429;51.074;13.764;2022-11-20T05:26:18;-6.20;99.90
43949;DHT22;29429;51.074;13.764;2022-11-20T05:28:48;-6.20;99.90
43949;DHT22;29429;51.074;13.764;2022-11-20T05:31:18;-6.10;99.90
43949;DHT22;29429;51.074;13.764;2022-11-20T05:33:53;-6.20;99.90
43949;DHT22;29429;51.074;13.764;2022-11-20T05:36:20;-6.20;99.90
43949;DHT22;29429;51.074;13.764;2022-11-20T05:38:47;-6.20;99.90
43949;DHT22;29429;51.074;13.764;2022-11-20T05:41:18;-6.10;99.90
43949;DHT22;29429;51.074;13.764;2022-11-20T05:43:48;-6.20;99.90
43949;DHT22;29429;51.074;13.764;2022-11-20T05:46:18;-6.20;99.90
43949;DHT22;29429;51.074;13.764;2022-11-20T05:48:54;-6.20;99.90
43949;DHT22;29429;51.074;13.764;2022-11-20T05:51:21;-6.20;99.90
43949;DHT22;29429;51.074;13.764;2022-11-20T05:53:49;-6.20;99.90
43949;DHT22;29429;51.074;13.764;2022-11-20T05:56:18;-6.20;99.90
43949;DHT22;29429;51.074;13.764;2022-11-20T05:58:48;-6.20;99.90
43949;DHT22;29429;51.074;13.764;2022-11-20T06:01:20;-6.20;99.90
43949;DHT22;29429;51.074;13.764;2022-11-20T06:03:48;-6.30;99.90
43949;DHT22;29429;51.074;13.764;2022-11-20T06:06:18;-6.30;99.90
43949;DHT22;29429;51.074;13.764;2022-11-20T06:08:45;-6.30;99.90
43949;DHT22;29429;51.074;13.764;2022-11-20T06:11:13;-6.40;99.90
43949;DHT22;29429;51.074;13.764;2022-11-20T06:13:42;-6.30;99.90
43949;DHT22;29429;51.074;13.764;2022-11-20T06:16:10;-6.40;99.90
43949;DHT22;29429;51.074;13.764;2022-11-20T06:18:38;-6.40;99.90
43949;DHT22;29429;51.074;13.764;2022-11-20T06:21:08;-6.40;99.90
43949;DHT22;29429;51.074;13.764;2022-11-20T06:23:39;-6.40;99.90
43949;DHT22;29429;51.074;13.764;2022-11-20T06:26:12;-6.40;99.90
43949;DHT22;29429;51.074;13.764;2022-11-20T06:28:41;-6.40;99.90
43949;DHT22;29429;51.074;13.764;2022-11-20T06:31:11;-6.40;99.90
43949;DHT22;29429;51.074;13.764;2022-11-20T06:33:41;-6.40;99.90
43949;DHT22;29429;51.074;13.764;2022-11-20T06:36:10;-6.50;99.90
43949;DHT22;29429;51.074;13.764;2022-11-20T06:38:39;-6.40;99.90
43949;DHT22;29429;51.074;13.764;2022-11-20T06:41:10;-6.40;99.90
43949;DHT22;29429;51.074;13.764;2022-11-20T06:43:38;-6.40;99.90
43949;DHT22;29429;51.074;13.764;2022-11-20T06:46:06;-6.40;99.90
43949;DHT22;29429;51.074;13.764;2022-11-20T06:48:33;-6.40;99.90
43949;DHT22;29429;51.074;13.764;2022-11-20T06:51:03;-6.30;99.90
43949;DHT22;29429;51.074;13.764;2022-11-20T06:53:31;-6.30;99.90
43949;DHT22;29429;51.074;13.764;2022-11-20T06:55:58;-6.30;99.90
43949;DHT22;29429;51.074;13.764;2022-11-20T06:58:31;-6.30;99.90
43949;DHT22;29429;51.074;13.764;2022-11-20T07:01:04;-6.30;99.90
43949;DHT22;29429;51.074;13.764;2022-11-20T07:03:33;-6.30;99.90
43949;DHT22;29429;51.074;13.764;2022-11-20T07:06:01;-6.20;99.90
43949;DHT22;29429;51.074;13.764;2022-11-20T07:08:29;-6.20;99.90
43949;DHT22;29429;51.074;13.764;2022-11-20T07:11:01;-6.10;99.90
43949;DHT22;29429;51.074;13.764;2022-11-20T07:13:30;-6.00;99.90
43949;DHT22;29429;51.074;13.764;2022-11-20T07:19:16;-5.90;99.90
43949;DHT22;29429;51.074;13.764;2022-11-20T07:21:43;-5.70;99.90
43949;DHT22;29429;51.074;13.764;2022-11-20T07:24:10;-5.70;99.90
43949;DHT22;29429;51.074;13.764;2022-11-20T07:26:38;-5.70;99.90
43949;DHT22;29429;51.074;13.764;2022-11-20T07:29:05;-5.60;99.90
43949;DHT22;29429;51.074;13.764;2022-11-20T07:31:32;-5.50;99.90
43949;DHT22;29429;51.074;13.764;2022-11-20T07:33:58;-5.50;99.90
43949;DHT22;29429;51.074;13.764;2022-11-20T07:36:26;-5.40;99.90
43949;DHT22;29429;51.074;13.764;2022-11-20T07:38:53;-5.40;99.90
43949;DHT22;29429;51.074;13.764;2022-11-20T07:41:20;-5.40;99.90
43949;DHT22;29429;51.074;13.764;2022-11-20T07:43:47;-5.30;99.90
43949;DHT22;29429;51.074;13.764;2022-11-20T07:46:14;-5.20;99.90
43949;DHT22;29429;51.074;13.764;2022-11-20T07:48:41;-5.20;99.90
43949;DHT22;29429;51.074;13.764;2022-11-20T07:51:08;-5.10;99.90
43949;DHT22;29429;51.074;13.764;2022-11-20T07:53:35;-5.10;99.90
43949;DHT22;29429;51.074;13.764;2022-11-20T07:56:02;-5.00;99.90
43949;DHT22;29429;51.074;13.764;2022-11-20T07:58:30;-5.00;99.90
43949;DHT22;29429;51.074;13.764;2022-11-20T08:01:06;-4.90;99.90
43949;DHT22;29429;51.074;13.764;2022-11-20T08:03:35;-4.80;99.90
43949;DHT22;29429;51.074;13.764;2022-11-20T08:06:04;-4.70;99.90
43949;DHT22;29429;51.074;13.764;2022-11-20T08:08:31;-4.60;99.90
43949;DHT22;29429;51.074;13.764;2022-11-20T08:11:00;-4.60;99.90
43949;DHT22;29429;51.074;13.764;2022-11-20T08:13:46;-4.50;99.90
43949;DHT22;29429;51.074;13.764;2022-11-20T08:16:32;-4.40;99.90
43949;DHT22;29429;51.074;13.764;2022-11-20T08:18:59;-4.30;99.90
43949;DHT22;29429;51.074;13.764;2022-11-20T08:21:26;-4.20;99.90
43949;DHT22;29429;51.074;13.764;2022-11-20T08:23:52;-4.10;99.90
43949;DHT22;29429;51.074;13.764;2022-11-20T08:26:21;-4.00;99.90
43949;DHT22;29429;51.074;13.764;2022-11-20T08:28:48;-3.90;99.90
43949;DHT22;29429;51.074;13.764;2022-11-20T08:31:14;-3.90;99.90
43949;DHT22;29429;51.074;13.764;2022-11-20T08:33:41;-3.80;99.90
43949;DHT22;29429;51.074;13.764;2022-11-20T08:36:08;-3.70;99.90
43949;DHT22;29429;51.074;13.764;2022-11-20T08:38:35;-3.60;99.90
43949;DHT22;29429;51.074;13.764;2022-11-20T08:41:04;-3.50;99.90
43949;DHT22;29429;51.074;13.764;2022-11-20T08:43:52;-3.40;99.90
43949;DHT22;29429;51.074;13.764;2022-11-20T08:46:25;-3.30;99.90
43949;DHT22;29429;51.074;13.764;2022-11-20T08:48:54;-3.20;99.90
43949;DHT22;29429;51.074;13.764;2022-11-20T08:51:21;-3.10;99.90
43949;DHT22;29429;51.074;13.764;2022-11-20T08:53:48;-3.00;99.90
43949;DHT22;29429;51.074;13.764;2022-11-20T08:56:18;-2.90;99.90
43949;DHT22;29429;51.074;13.764;2022-11-20T08:58:45;-2.80;99.90
43949;DHT22;29429;51.074;13.764;2022-11-20T09:01:32;-2.80;99.90
43949;DHT22;29429;51.074;13.764;2022-11-20T09:03:59;-2.70;99.90
43949;DHT22;29429;51.074;13.764;2022-11-20T09:06:26;-2.70;99.90
43949;DHT22;29429;51.074;13.764;2022-11-20T09:08:53;-2.60;99.90
43949;DHT22;29429;51.074;13.764;2022-11-20T09:11:21;-2.50;99.90
43949;DHT22;29429;51.074;13.764;2022-11-20T09:13:49;-2.50;99.90
43949;DHT22;29429;51.074;13.764;2022-11-20T09:16:16;-2.40;99.90
43949;DHT22;29429;51.074;13.764;2022-11-20T09:18:43;-2.40;99.90
43949;DHT22;29429;51.074;13.764;2022-11-20T09:21:11;-2.10;99.90
43949;DHT22;29429;51.074;13.764;2022-11-20T09:23:40;-2.20;99.90
43949;DHT22;29429;51.074;13.764;2022-11-20T09:26:10;-2.10;99.90
43949;DHT22;29429;51.074;13.764;2022-11-20T09:28:39;-2.10;99.90
43949;DHT22;29429;51.074;13.764;2022-11-20T09:31:08;-2.00;99.90
43949;DHT22;29429;51.074;13.764;2022-11-20T09:33:36;-2.00;99.90
43949;DHT22;29429;51.074;13.764;2022-11-20T09:36:03;-1.90;99.90
43949;DHT22;29429;51.074;13.764;2022-11-20T09:38:30;-1.90;99.90
43949;DHT22;29429;51.074;13.764;2022-11-20T09:41:05;-1.80;99.90
43949;DHT22;29429;51.074;13.764;2022-11-20T09:53:09;-1.50;99.90
43949;DHT22;29429;51.074;13.764;2022-11-20T09:55:47;-1.40;99.90
43949;DHT22;29429;51.074;13.764;2022-11-20T09:58:30;-1.40;99.90
43949;DHT22;29429;51.074;13.764;2022-11-20T10:01:31;-1.30;99.90
43949;DHT22;29429;51.074;13.764;2022-11-20T10:04:20;-1.20;99.90
43949;DHT22;29429;51.074;13.764;2022-11-20T10:09:55;-1.10;99.90
43949;DHT22;29429;51.074;13.764;2022-11-20T10:23:59;-0.70;99.90
43949;DHT22;29429;51.074;13.764;2022-11-20T10:26:46;-0.70;99.90
43949;DHT22;29429;51.074;13.764;2022-11-20T10:29:32;-0.60;99.90
43949;DHT22;29429;51.074;13.764;2022-11-20T10:32:15;-0.60;99.90
43949;DHT22;29429;51.074;13.764;2022-11-20T10:34:52;-0.50;99.90
43949;DHT22;29429;51.074;13.764;2022-11-20T10:37:31;-0.40;99.90
43949;DHT22;29429;51.074;13.764;2022-11-20T10:40:21;-0.40;99.90
43949;DHT22;29429;51.074;13.764;2022-11-20T10:43:01;-0.30;99.90
43949;DHT22;29429;51.074;13.764;2022-11-20T10:45:36;-0.20;99.90
43949;DHT22;29429;51.074;13.764;2022-11-20T10:48:22;-0.10;99.90
43949;DHT22;29429;51.074;13.764;2022-11-20T10:51:13;0.10;99.90
43949;DHT22;29429;51.074;13.764;2022-11-20T10:54:36;0.30;99.90
43949;DHT22;29429;51.074;13.764;2022-11-20T11:01:13;0.70;99.90
43949;DHT22;29429;51.074;13.764;2022-11-20T11:03:42;0.90;99.90
43949;DHT22;29429;51.074;13.764;2022-11-20T11:06:35;0.90;99.90
43949;DHT22;29429;51.074;13.764;2022-11-20T11:09:16;0.90;99.90
43949;DHT22;29429;51.074;13.764;2022-11-20T11:11:47;0.90;99.90
43949;DHT22;29429;51.074;13.764;2022-11-20T11:14:15;0.90;99.90
43949;DHT22;29429;51.074;13.764;2022-11-20T11:16:54;1.00;99.90
43949;DHT22;29429;51.074;13.764;2022-11-20T11:19:22;1.10;99.90
43949;DHT22;29429;51.074;13.764;2022-11-20T11:21:55;1.10;99.90
43949;DHT22;29429;51.074;13.764;2022-11-20T11:24:28;1.30;99.90
43949;DHT22;29429;51.074;13.764;2022-11-20T11:27:13;1.40;99.90
43949;DHT22;29429;51.074;13.764;2022-11-20T11:29:45;1.60;99.90
43949;DHT22;29429;51.074;13.764;2022-11-20T11:34:44;2.00;99.90
43949;DHT22;29429;51.074;13.764;2022-11-20T11:37:17;2.10;99.90
43949;DHT22;29429;51.074;13.764;2022-11-20T11:39:46;2.10;99.90
43949;DHT22;29429;51.074;13.764;2022-11-20T11:42:29;2.10;99.90
43949;DHT22;29429;51.074;13.764;2022-11-20T11:45:00;2.10;99.90
43949;DHT22;29429;51.074;13.764;2022-11-20T11:47:44;2.10;99.90
43949;DHT22;29429;51.074;13.764;2022-11-20T11:50:16;2.00;99.90
43949;DHT22;29429;51.074;13.764;2022-11-20T11:55:58;2.00;99.90
43949;DHT22;29429;51.074;13.764;2022-11-20T11:58:50;2.00;99.90
43949;DHT22;29429;51.074;13.764;2022-11-20T12:01:47;1.90;99.90
43949;DHT22;29429;51.074;13.764;2022-11-20T12:04:56;1.80;99.90
43949;DHT22;29429;51.074;13.764;2022-11-20T12:10:53;1.50;99.90
43949;DHT22;29429;51.074;13.764;2022-11-20T12:16:02;1.30;99.90
43949;DHT22;29429;51.074;13.764;2022-11-20T12:18:30;1.30;99.90
43949;DHT22;29429;51.074;13.764;2022-11-20T12:35:37;1.40;99.90
43949;DHT22;29429;51.074;13.764;2022-11-20T12:41:46;1.80;99.90
43949;DHT22;29429;51.074;13.764;2022-11-20T13:08:25;2.40;99.90
43949;DHT22;29429;51.074;13.764;2022-11-20T13:16:40;2.40;99.90
43949;DHT22;29429;51.074;13.764;2022-11-20T13:19:16;2.40;99.90
43949;DHT22;29429;51.074;13.764;2022-11-20T13:21:47;2.60;99.90
43949;DHT22;29429;51.074;13.764;2022-11-20T13:29:36;2.40;99.90
43949;DHT22;29429;51.074;13.764;2022-11-20T13:32:15;2.30;99.90
43949;DHT22;29429;51.074;13.764;2022-11-20T13:37:32;2.10;99.90
43949;DHT22;29429;51.074;13.764;2022-11-20T13:45:27;2.00;99.90
43949;DHT22;29429;51.074;13.764;2022-11-20T13:47:56;2.00;99.90
43949;DHT22;29429;51.074;13.764;2022-11-20T13:53:42;2.00;99.90
43949;DHT22;29429;51.074;13.764;2022-11-20T13:59:40;2.20;99.90
43949;DHT22;29429;51.074;13.764;2022-11-20T14:02:17;2.10;99.90
43949;DHT22;29429;51.074;13.764;2022-11-20T14:04:51;2.00;99.90
43949;DHT22;29429;51.074;13.764;2022-11-20T14:07:38;2.00;99.90
43949;DHT22;29429;51.074;13.764;2022-11-20T14:10:29;2.20;99.90
43949;DHT22;29429;51.074;13.764;2022-11-20T14:12:58;1.90;99.90
43949;DHT22;29429;51.074;13.764;2022-11-20T14:15:36;1.90;99.90
43949;DHT22;29429;51.074;13.764;2022-11-20T14:18:19;1.90;99.90
43949;DHT22;29429;51.074;13.764;2022-11-20T14:20:48;1.80;99.90
43949;DHT22;29429;51.074;13.764;2022-11-20T14:23:27;1.70;99.90
43949;DHT22;29429;51.074;13.764;2022-11-20T14:25:56;1.70;99.90
43949;DHT22;29429;51.074;13.764;2022-11-20T14:28:30;1.50;99.90
43949;DHT22;29429;51.074;13.764;2022-11-20T14:30:58;1.60;99.90
43949;DHT22;29429;51.074;13.764;2022-11-20T14:33:26;1.50;99.90
43949;DHT22;29429;51.074;13.764;2022-11-20T14:35:55;1.40;99.90
43949;DHT22;29429;51.074;13.764;2022-11-20T14:38:29;1.20;99.90
43949;DHT22;29429;51.074;13.764;2022-11-20T14:41:14;1.10;99.90
43949;DHT22;29429;51.074;13.764;2022-11-20T14:43:56;0.90;99.90
43949;DHT22;29429;51.074;13.764;2022-11-20T14:46:25;0.80;99.90
43949;DHT22;29429;51.074;13.764;2022-11-20T14:48:56;0.60;99.90
43949;DHT22;29429;51.074;13.764;2022-11-20T14:51:38;0.50;99.90
43949;DHT22;29429;51.074;13.764;2022-11-20T14:54:17;0.40;99.90
43949;DHT22;29429;51.074;13.764;2022-11-20T14:59:33;0.20;99.90
43949;DHT22;29429;51.074;13.764;2022-11-20T15:02:10;0.10;99.90
43949;DHT22;29429;51.074;13.764;2022-11-20T15:04:57;0.00;99.90
43949;DHT22;29429;51.074;13.764;2022-11-20T15:07:31;-0.10;99.90
43949;DHT22;29429;51.074;13.764;2022-11-20T15:10:02;-0.10;99.90
43949;DHT22;29429;51.074;13.764;2022-11-20T15:12:37;-0.20;99.90
43949;DHT22;29429;51.074;13.764;2022-11-20T15:15:14;-0.20;99.90
43949;DHT22;29429;51.074;13.764;2022-11-20T15:17:45;-0.30;99.90
43949;DHT22;29429;51.074;13.764;2022-11-20T15:20:15;-0.40;99.90
43949;DHT22;29429;51.074;13.764;2022-11-20T15:22:44;-0.50;99.90
43949;DHT22;29429;51.074;13.764;2022-11-20T15:25:16;-0.60;99.90
43949;DHT22;29429;51.074;13.764;2022-11-20T15:27:45;-0.60;99.90
43949;DHT22;29429;51.074;13.764;2022-11-20T15:30:18;-0.70;99.90
43949;DHT22;29429;51.074;13.764;2022-11-20T15:32:46;-0.80;99.90
43949;DHT22;29429;51.074;13.764;2022-11-20T15:35:15;-0.80;99.90
43949;DHT22;29429;51.074;13.764;2022-11-20T15:37:42;-0.90;99.90
43949;DHT22;29429;51.074;13.764;2022-11-20T15:40:10;-1.00;99.90
43949;DHT22;29429;51.074;13.764;2022-11-20T15:42:37;-1.00;99.90
43949;DHT22;29429;51.074;13.764;2022-11-20T15:45:10;-1.00;99.90
43949;DHT22;29429;51.074;13.764;2022-11-20T15:47:54;-1.10;99.90
43949;DHT22;29429;51.074;13.764;2022-11-20T15:50:22;-1.20;99.90
43949;DHT22;29429;51.074;13.764;2022-11-20T15:52:56;-1.20;99.90
43949;DHT22;29429;51.074;13.764;2022-11-20T15:55:24;-1.30;99.90
43949;DHT22;29429;51.074;13.764;2022-11-20T15:57:51;-1.40;99.90
43949;DHT22;29429;51.074;13.764;2022-11-20T16:00:18;-1.40;99.90
43949;DHT22;29429;51.074;13.764;2022-11-20T16:02:49;-1.50;99.90
43949;DHT22;29429;51.074;13.764;2022-11-20T16:05:18;-1.50;99.90
43949;DHT22;29429;51.074;13.764;2022-11-20T16:07:45;-1.60;99.90
43949;DHT22;29429;51.074;13.764;2022-11-20T16:10:12;-1.60;99.90
43949;DHT22;29429;51.074;13.764;2022-11-20T16:12:39;-1.60;99.90
43949;DHT22;29429;51.074;13.764;2022-11-20T16:15:24;-1.60;99.90
43949;DHT22;29429;51.074;13.764;2022-11-20T16:18:11;-1.60;99.90
43949;DHT22;29429;51.074;13.764;2022-11-20T16:20:39;-1.60;99.90
43949;DHT22;29429;51.074;13.764;2022-11-20T16:23:07;-1.70;99.90
43949;DHT22;29429;51.074;13.764;2022-11-20T16:25:34;-1.60;99.90
43949;DHT22;29429;51.074;13.764;2022-11-20T16:28:01;-1.60;99.90
43949;DHT22;29429;51.074;13.764;2022-11-20T16:30:28;-1.70;99.90
43949;DHT22;29429;51.074;13.764;2022-11-20T16:32:55;-1.70;99.90
43949;DHT22;29429;51.074;13.764;2022-11-20T16:35:21;-1.70;99.90
43949;DHT22;29429;51.074;13.764;2022-11-20T16:37:48;-1.70;99.90
43949;DHT22;29429;51.074;13.764;2022-11-20T16:40:15;-1.70;99.90
43949;DHT22;29429;51.074;13.764;2022-11-20T16:42:42;-1.70;99.90
43949;DHT22;29429;51.074;13.764;2022-11-20T16:45:09;-1.70;99.90
43949;DHT22;29429;51.074;13.764;2022-11-20T16:47:37;-1.70;99.90
43949;DHT22;29429;51.074;13.764;2022-11-20T16:50:04;-1.70;99.90
43949;DHT22;29429;51.074;13.764;2022-11-20T16:52:32;-1.70;99.90
43949;DHT22;29429;51.074;13.764;2022-11-20T16:54:59;-1.70;99.90
43949;DHT22;29429;51.074;13.764;2022-11-20T16:57:30;-1.70;99.90
43949;DHT22;29429;51.074;13.764;2022-11-20T16:59:59;-1.70;99.90
43949;DHT22;29429;51.074;13.764;2022-11-20T17:02:28;-1.70;99.90
43949;DHT22;29429;51.074;13.764;2022-11-20T17:04:55;-1.70;99.90
43949;DHT22;29429;51.074;13.764;2022-11-20T17:07:22;-1.70;99.90
43949;DHT22;29429;51.074;13.764;2022-11-20T17:09:49;-1.70;99.90
43949;DHT22;29429;51.074;13.764;2022-11-20T17:12:16;-1.70;99.90
43949;DHT22;29429;51.074;13.764;2022-11-20T17:14:43;-1.50;99.90
43949;DHT22;29429;51.074;13.764;2022-11-20T17:17:10;-1.80;99.90
43949;DHT22;29429;51.074;13.764;2022-11-20T17:19:37;-1.80;99.90
43949;DHT22;29429;51.074;13.764;2022-11-20T17:22:04;-1.90;99.90
43949;DHT22;29429;51.074;13.764;2022-11-20T17:24:31;-2.00;99.90
43949;DHT22;29429;51.074;13.764;2022-11-20T17:26:58;-2.00;99.90
43949;DHT22;29429;51.074;13.764;2022-11-20T17:29:25;-2.00;99.90
43949;DHT22;29429;51.074;13.764;2022-11-20T17:31:53;-1.90;99.90
43949;DHT22;29429;51.074;13.764;2022-11-20T17:34:20;-2.10;99.90
43949;DHT22;29429;51.074;13.764;2022-11-20T17:36:48;-2.20;99.90
43949;DHT22;29429;51.074;13.764;2022-11-20T17:39:15;-2.20;99.90
43949;DHT22;29429;51.074;13.764;2022-11-20T17:41:43;-2.30;99.90
43949;DHT22;29429;51.074;13.764;2022-11-20T17:44:11;-2.40;99.90